Alexander, West Virginia
Current Conditions -  °F | °C
As of 8:35 AM on Sunday 21 Dec 2014 (Local Time) from KW22 Reporting Station
Overcast Overcast  
Wind Chill: -2°   Ceiling: 4400
Heat Index: -2°   Visibility: 10mi
Dew Point: -3°   Wind: 0mph
Humidity: 93%   Direction: NA
Pressure: 30.27"   Gusts: NA
Location:  38.8347°N, 80.2578°W
Report Text: KW22 211335Z AUTO 00000KT 10SM FEW032 OVC044 M02/M03 A3027 RMK AO2
Loading
Personal Weather Stations






























Interactive Weather Map New forecast layout! Learn more

10-Day Weather Forecast

Advertisements
Track Severe Weather on mobile